Terminal Aerodrome Forecast
Issued by NWS

Home | Current Version | Previous Version | Text Only | Print | Product List | Glossary On
Versions: 1 2 3 4 5 6 7 8 9 10 11 12 13 14 15 16 17 18 19 20 21 22 23 24 25 26 27
000
FTUS41 KOKX 051400 AAB
TAFSWF
TAF AMD
KSWF 051434Z 0515/0618 33010G16KT 4SM -SN BKN020 BKN040
     FM051800 32009KT P6SM SCT030 OVC100
     FM060200 31007KT P6SM BKN080
     FM061000 VRB05KT P6SM FEW050
      AMD NOT SKED=

USA.gov is the U.S. government's official web portal to all federal, state and local government web resources and services.